Camden, IN (46917)

12:14 PM EDT on May 23, 2015 (GMT -0400)
Carroll Jr/Sr High School | | Change Station
CLOSE
Current Station
Personal Weather Station
Location: Flora, IN
Elevation: 715 ft
Nearby Weather Stations

Elev 715 ft 40.55 °N, 86.48 °W | Updated 14 seconds ago

Partly Cloudy
Partly Cloudy
76.1 °F
Feels Like 75 °F
N
8.7
Wind Variable Wind from SW
Gusts 10.4 mph

Today
High -- | Low -- °F
--% Chance of Precip.
Yesterday
High -- | Low -- °F
Precip. -- in
6:22 AM 9:03 PM
Waxing Crescent, 31% visible
Pressure 30.36 in
Visibility 10.0 miles
Clouds Mostly Cloudy 12000 ft
Heat Index 75 °F
Dew Point 2 °F
Humidity 5%
Rainfall 0.00 in
Snow Depth Not available.
UV 5 out of 12
Pollen 8.90 out of 12
Air Quality Not available.
Flu Activity Sporadic
METAR KGGP 231555Z AUTO 21007KT 10SM BKN120 23/03 A3036 RMK AO2

More Conditions Fewer Conditions

Pressure 30.36 in
Visibility 10.0 miles
Clouds Mostly Cloudy 12000 ft
Heat Index 75 °F
Dew Point 2 °F
Humidity 5%
Rainfall 0.00 in
Snow Depth Not available.
UV 5 out of 12
Pollen 8.90 out of 12
Air Quality Not available.
Flu Activity Sporadic
METAR KGGP 231555Z AUTO 21007KT 10SM BKN120 23/03 A3036 RMK AO2

More Conditions Fewer Conditions

10-Day Weather Forecast

Almanac

Astronomy

May. 23, 2015 Rise Set
Actual Time
Civil Twilight
Nautical Twilight
Astronomical Twilight
Moon
Length of Visible Light
Length of Day
Tomorrow will be .
, % of the Moon is Illuminated

Today's Extremes

State Highs State Lows

Community

WunderPhotos

Upload Photos

1,823,512 photos uploaded!

WunderBlogs® & News

Nearby

Air Quality

  Air Quality AQ Index Pollutant
Not available.

Snow Depth

Station Depth Elevation

Earthquake Activity

City Distance Mag. Time & Date
Minimum magnitude displayed is 2.5.

Coastal Water Temperatures

Place Temperature

Stations

Nearby Weather Stations

Station Location Temp. Windchill Dew Point Humidity Wind Precip. Elev Updated Type